createdAt,value
2019-05-22T00:00:32.316Z,12.75
2019-05-22T00:03:02.890Z,12.65
2019-05-22T00:05:38.580Z,12.55
2019-05-22T00:08:08.590Z,12.57
2019-05-22T00:10:38.544Z,12.55
2019-05-22T00:13:08.870Z,12.55
2019-05-22T00:15:38.964Z,12.52
2019-05-22T00:18:07.733Z,12.48
2019-05-22T00:20:36.207Z,12.46
2019-05-22T00:23:07.078Z,12.47
2019-05-22T00:25:38.039Z,12.50
2019-05-22T00:28:07.020Z,12.45
2019-05-22T00:30:36.882Z,12.46
2019-05-22T00:33:05.948Z,12.41
2019-05-22T00:35:34.624Z,12.39
2019-05-22T00:38:05.581Z,12.32
2019-05-22T00:40:35.574Z,12.27
2019-05-22T00:43:12.801Z,12.31
2019-05-22T00:45:35.734Z,12.27
2019-05-22T00:48:04.862Z,12.25
2019-05-22T00:50:40.938Z,12.25
2019-05-22T00:53:10.872Z,12.21
2019-05-22T00:55:43.762Z,12.19
2019-05-22T00:58:13.759Z,12.18
2019-05-22T01:00:49.712Z,12.23
2019-05-22T01:03:26.170Z,12.25
2019-05-22T01:05:55.486Z,12.25
2019-05-22T01:08:25.414Z,12.28
2019-05-22T01:10:54.771Z,12.25
2019-05-22T01:13:23.194Z,12.30
2019-05-22T01:15:51.742Z,12.32
2019-05-22T01:18:21.870Z,12.36
2019-05-22T01:20:52.052Z,12.33
2019-05-22T01:23:24.877Z,12.32
2019-05-22T01:25:54.587Z,12.35
2019-05-22T01:28:24.644Z,12.28
2019-05-22T01:30:54.724Z,12.28
2019-05-22T01:33:41.167Z,12.20
2019-05-22T01:36:11.284Z,12.19
2019-05-22T01:38:40.736Z,12.22
2019-05-22T01:41:18.697Z,12.21
2019-05-22T01:43:48.644Z,12.23
2019-05-22T01:46:17.002Z,12.23
2019-05-22T01:48:45.390Z,12.22
2019-05-22T01:51:14.720Z,12.22
2019-05-22T01:53:43.874Z,12.27
2019-05-22T01:56:13.800Z,12.27
2019-05-22T01:58:42.896Z,12.21
2019-05-22T02:01:16.318Z,12.26
2019-05-22T02:03:44.780Z,12.25
2019-05-22T02:06:14.771Z,12.19
2019-05-22T02:08:48.023Z,12.17
2019-05-22T02:11:16.390Z,12.17
2019-05-22T02:13:55.239Z,12.21
2019-05-22T02:16:24.958Z,12.26
2019-05-22T02:18:53.981Z,12.24
2019-05-22T02:21:23.912Z,12.23
2019-05-22T02:23:53.010Z,12.22
2019-05-22T02:26:22.390Z,12.18
2019-05-22T02:28:50.880Z,12.17
2019-05-22T02:31:22.074Z,12.12
2019-05-22T02:34:07.187Z,12.10
2019-05-22T02:36:37.128Z,12.12
2019-05-22T02:39:18.248Z,12.12
2019-05-22T02:41:58.086Z,12.04
2019-05-22T02:44:27.452Z,12.08
2019-05-22T02:47:16.338Z,12.11
2019-05-22T02:49:29.201Z,12.11
2019-05-22T02:51:58.424Z,12.09
2019-05-22T02:54:27.537Z,11.97
2019-05-22T02:56:56.289Z,11.92
2019-05-22T02:59:25.655Z,11.85
2019-05-22T03:01:54.510Z,11.83
2019-05-22T03:04:23.902Z,11.83
2019-05-22T03:06:53.361Z,11.86
2019-05-22T03:09:23.288Z,11.81
2019-05-22T03:11:55.533Z,11.66
2019-05-22T03:14:25.447Z,11.62
2019-05-22T03:16:58.114Z,11.62
2019-05-22T03:19:39.185Z,11.60
2019-05-22T03:22:25.871Z,11.61
2019-05-22T03:24:58.033Z,11.61
2019-05-22T03:27:35.500Z,11.64
2019-05-22T03:30:04.922Z,11.57
2019-05-22T03:32:33.298Z,11.59
2019-05-22T03:35:01.679Z,11.58
2019-05-22T03:37:29.985Z,11.60
2019-05-22T03:39:58.462Z,11.59
2019-05-22T03:42:27.375Z,11.55
2019-05-22T03:44:56.714Z,11.56
2019-05-22T03:47:25.846Z,11.55
2019-05-22T03:49:55.326Z,11.58
2019-05-22T03:52:25.628Z,11.60
2019-05-22T03:54:54.288Z,11.57
2019-05-22T03:57:23.669Z,11.63
2019-05-22T03:59:52.224Z,11.63
2019-05-22T04:02:20.677Z,11.65
2019-05-22T04:04:49.470Z,11.65
2019-05-22T04:07:19.389Z,11.64
2019-05-22T04:09:49.488Z,11.67
2019-05-22T04:12:18.744Z,11.69
2019-05-22T04:14:47.104Z,11.74
2019-05-22T04:17:16.158Z,11.81
2019-05-22T04:19:50.163Z,11.84
2019-05-22T04:22:17.025Z,11.78
2019-05-22T04:24:45.849Z,11.83
2019-05-22T04:27:14.343Z,11.85
2019-05-22T04:29:43.099Z,11.84
2019-05-22T04:32:32.428Z,11.83
2019-05-22T04:35:02.803Z,11.79
2019-05-22T04:37:32.100Z,11.78
2019-05-22T04:40:23.493Z,11.75
2019-05-22T04:42:51.984Z,11.79
2019-05-22T04:45:20.334Z,11.81
2019-05-22T04:47:54.238Z,11.78
2019-05-22T04:50:22.655Z,11.78
2019-05-22T04:52:51.189Z,11.83
2019-05-22T04:55:19.963Z,11.81
2019-05-22T04:57:48.342Z,11.87
2019-05-22T05:00:16.698Z,11.89
2019-05-22T05:02:45.262Z,11.87
2019-05-22T05:05:15.245Z,11.89
2019-05-22T05:07:44.016Z,11.90
2019-05-22T05:10:12.366Z,11.94
2019-05-22T05:12:42.047Z,11.98
2019-05-22T05:15:11.378Z,12.01
2019-05-22T05:17:40.351Z,12.01
2019-05-22T05:20:21.645Z,12.02
2019-05-22T05:22:44.464Z,12.05
2019-05-22T05:25:17.629Z,12.05
2019-05-22T05:27:46.852Z,12.06
2019-05-22T05:30:16.484Z,12.11
2019-05-22T05:32:45.241Z,12.10
2019-05-22T05:35:14.469Z,12.07
2019-05-22T05:37:42.804Z,12.08
2019-05-22T05:40:14.378Z,12.07
2019-05-22T05:42:42.771Z,12.06
2019-05-22T05:45:13.499Z,12.09
2019-05-22T05:47:42.021Z,12.09
2019-05-22T05:50:12.541Z,12.09
2019-05-22T05:52:42.117Z,12.08
2019-05-22T05:55:11.973Z,12.10
2019-05-22T05:57:52.319Z,12.16
2019-05-22T06:00:27.952Z,12.18
2019-05-22T06:03:11.652Z,12.25
2019-05-22T06:05:40.075Z,12.23
2019-05-22T06:08:08.410Z,12.17
2019-05-22T06:10:40.976Z,12.20
2019-05-22T06:13:10.130Z,12.17
2019-05-22T06:15:48.083Z,12.16
2019-05-22T06:18:34.678Z,12.21
2019-05-22T06:21:04.649Z,12.20
2019-05-22T06:23:39.645Z,12.23
2019-05-22T06:26:07.947Z,12.25
2019-05-22T06:28:38.336Z,12.26
2019-05-22T06:31:10.647Z,12.21
2019-05-22T06:33:39.309Z,12.21
2019-05-22T06:36:11.568Z,12.29
2019-05-22T06:38:54.972Z,12.32
2019-05-22T06:41:28.469Z,12.34
2019-05-22T06:44:29.053Z,12.27
2019-05-22T06:46:58.256Z,12.23
2019-05-22T06:49:35.577Z,12.28
2019-05-22T06:52:06.300Z,12.25
2019-05-22T06:54:34.740Z,12.24
2019-05-22T06:57:03.126Z,12.27
2019-05-22T06:59:31.444Z,12.27
2019-05-22T07:02:01.944Z,12.27
2019-05-22T07:04:30.486Z,12.28
2019-05-22T07:06:59.655Z,12.30
2019-05-22T07:09:29.703Z,12.30
2019-05-22T07:11:58.656Z,12.36
2019-05-22T07:14:27.327Z,12.40
2019-05-22T07:16:56.176Z,12.45
2019-05-22T07:19:24.987Z,12.39
2019-05-22T07:21:53.267Z,12.36
2019-05-22T07:24:22.038Z,12.36
2019-05-22T07:26:51.563Z,12.36
2019-05-22T07:29:21.133Z,12.42
2019-05-22T07:31:49.425Z,12.46
2019-05-22T07:34:18.647Z,12.48
2019-05-22T07:36:47.257Z,12.56
2019-05-22T07:39:15.633Z,12.59
2019-05-22T07:41:43.913Z,12.58
2019-05-22T07:44:12.299Z,12.56
2019-05-22T07:46:40.717Z,12.59
2019-05-22T07:49:09.029Z,12.59
2019-05-22T07:51:50.485Z,12.65
2019-05-22T07:54:08.865Z,12.60
2019-05-22T07:56:37.209Z,12.64
2019-05-22T07:59:05.546Z,12.64
2019-05-22T08:01:33.894Z,12.65
2019-05-22T08:04:03.414Z,12.68
2019-05-22T08:06:31.702Z,12.74
2019-05-22T08:09:00.125Z,12.71
2019-05-22T08:11:28.434Z,12.75
2019-05-22T08:13:57.573Z,12.77
2019-05-22T08:16:26.358Z,12.84
2019-05-22T08:18:54.678Z,12.82
2019-05-22T08:21:23.745Z,12.84
2019-05-22T08:23:52.589Z,12.81
2019-05-22T08:26:21.132Z,12.81
2019-05-22T08:28:49.580Z,12.86
2019-05-22T08:31:18.218Z,12.93
2019-05-22T08:33:46.732Z,12.97
2019-05-22T08:36:15.031Z,12.99
2019-05-22T08:38:43.939Z,13.00
2019-05-22T08:41:12.868Z,13.09
2019-05-22T08:44:11.206Z,13.10
2019-05-22T08:46:12.365Z,13.15
2019-05-22T08:48:47.472Z,13.18
2019-05-22T08:51:11.065Z,13.24
2019-05-22T08:53:47.693Z,13.28
2019-05-22T08:56:10.426Z,13.39
2019-05-22T08:58:39.513Z,13.50
2019-05-22T09:01:09.579Z,13.51
2019-05-22T09:03:37.925Z,13.53
2019-05-22T09:06:06.245Z,13.55
2019-05-22T09:08:34.703Z,13.57
2019-05-22T09:11:03.792Z,13.66
2019-05-22T09:13:32.077Z,13.79
2019-05-22T09:16:01.957Z,13.91
2019-05-22T09:18:30.928Z,13.97
2019-05-22T09:20:59.790Z,14.04
2019-05-22T09:23:28.535Z,14.10
2019-05-22T09:25:58.454Z,14.10
2019-05-22T09:28:26.816Z,14.18
2019-05-22T09:30:55.261Z,14.28
2019-05-22T09:33:24.418Z,14.37
2019-05-22T09:35:53.155Z,14.46
2019-05-22T09:38:21.616Z,14.57
2019-05-22T09:40:50.096Z,14.88
2019-05-22T09:43:18.455Z,15.02
2019-05-22T09:45:46.745Z,15.15
2019-05-22T09:48:15.122Z,15.22
2019-05-22T09:50:43.644Z,15.39
2019-05-22T09:53:11.946Z,15.43
2019-05-22T09:55:40.361Z,15.59
2019-05-22T09:58:08.714Z,15.64
2019-05-22T10:00:37.669Z,15.75
2019-05-22T10:03:07.084Z,15.83
2019-05-22T10:05:35.462Z,15.75
2019-05-22T10:08:04.548Z,15.96
2019-05-22T10:10:33.023Z,16.04
2019-05-22T10:13:01.822Z,16.12
2019-05-22T10:15:31.228Z,16.36
2019-05-22T10:18:00.362Z,16.66
2019-05-22T10:20:29.224Z,16.78
2019-05-22T10:23:12.502Z,17.10
2019-05-22T10:25:27.663Z,17.13
2019-05-22T10:27:59.182Z,17.17
2019-05-22T10:30:27.314Z,17.19
2019-05-22T10:32:55.670Z,17.31
2019-05-22T10:35:25.430Z,17.55
2019-05-22T10:37:54.553Z,17.53
2019-05-22T10:40:22.982Z,17.59
2019-05-22T10:42:51.344Z,17.49
2019-05-22T10:45:19.847Z,17.53
2019-05-22T10:47:48.829Z,17.36
2019-05-22T10:50:17.172Z,17.70
2019-05-22T10:52:46.143Z,18.07
2019-05-22T10:55:14.432Z,18.55
2019-05-22T10:57:43.990Z,18.62
2019-05-22T11:00:13.018Z,18.70
2019-05-22T11:02:41.773Z,18.95
2019-05-22T11:05:10.052Z,19.08
2019-05-22T11:07:38.804Z,19.08
2019-05-22T11:10:07.360Z,19.06
2019-05-22T11:12:35.783Z,19.10
2019-05-22T11:15:08.762Z,18.93
2019-05-22T11:17:37.954Z,19.06
2019-05-22T11:20:08.736Z,19.32
2019-05-22T11:22:37.365Z,19.39
2019-05-22T11:25:11.415Z,19.35
2019-05-22T11:27:40.360Z,19.52
2019-05-22T11:30:11.238Z,19.66
2019-05-22T11:32:40.189Z,19.75
2019-05-22T11:35:08.749Z,19.71
2019-05-22T11:37:37.704Z,19.64
2019-05-22T11:40:07.030Z,19.79
2019-05-22T11:42:35.712Z,20.04
2019-05-22T11:45:05.786Z,20.33
2019-05-22T11:47:34.768Z,20.40
2019-05-22T11:50:03.423Z,20.63
2019-05-22T11:52:31.878Z,20.91
2019-05-22T11:55:00.835Z,21.07
2019-05-22T11:57:30.393Z,21.06
2019-05-22T11:59:58.804Z,20.87
2019-05-22T12:02:27.136Z,20.67
2019-05-22T12:04:55.454Z,20.79
2019-05-22T12:07:24.369Z,20.93
2019-05-22T12:09:52.705Z,21.09
2019-05-22T12:12:21.132Z,21.36
2019-05-22T12:14:49.717Z,21.27
2019-05-22T12:17:34.802Z,21.28
2019-05-22T12:19:48.417Z,21.15
2019-05-22T12:22:19.877Z,20.84
2019-05-22T12:24:46.736Z,20.77
2019-05-22T12:27:15.588Z,20.71
2019-05-22T12:29:44.089Z,20.71
2019-05-22T12:32:12.706Z,21.00
2019-05-22T12:34:40.997Z,20.97
2019-05-22T12:37:09.745Z,20.87
2019-05-22T12:39:39.086Z,20.75
2019-05-22T12:42:08.046Z,20.59
2019-05-22T12:44:37.230Z,20.77
2019-05-22T12:47:07.155Z,20.88
2019-05-22T12:49:35.898Z,20.70
2019-05-22T12:52:06.268Z,20.64
2019-05-22T12:54:45.998Z,20.59
2019-05-22T12:57:06.248Z,20.45
2019-05-22T12:59:34.569Z,20.44
2019-05-22T13:02:03.126Z,20.37
2019-05-22T13:04:31.968Z,20.22
2019-05-22T13:07:00.735Z,20.20
2019-05-22T13:09:29.289Z,20.11
2019-05-22T13:11:57.906Z,20.11
2019-05-22T13:14:26.316Z,20.18
2019-05-22T13:16:55.347Z,20.25
2019-05-22T13:19:23.674Z,20.24
2019-05-22T13:21:53.869Z,20.12
2019-05-22T13:24:23.166Z,20.08
2019-05-22T13:26:51.645Z,20.04
2019-05-22T13:29:20.075Z,19.89
2019-05-22T13:31:48.725Z,19.82
2019-05-22T13:34:17.085Z,19.73
2019-05-22T13:36:45.824Z,19.70
2019-05-22T13:39:15.241Z,19.60
2019-05-22T13:41:43.588Z,19.63
2019-05-22T13:44:12.476Z,19.65
2019-05-22T13:46:40.925Z,19.71
2019-05-22T13:49:09.236Z,20.10
2019-05-22T13:51:37.928Z,20.33
2019-05-22T13:54:06.470Z,20.36
2019-05-22T13:56:35.217Z,20.28
2019-05-22T13:59:03.890Z,20.22
2019-05-22T14:01:32.179Z,20.11
2019-05-22T14:04:00.640Z,19.97
2019-05-22T14:06:28.867Z,19.94
2019-05-22T14:08:57.155Z,19.98
2019-05-22T14:11:26.060Z,20.00
2019-05-22T14:13:54.991Z,20.01
2019-05-22T14:16:23.862Z,19.98
2019-05-22T14:18:52.236Z,19.92
2019-05-22T14:21:21.009Z,19.85
2019-05-22T14:23:49.305Z,19.73
2019-05-22T14:26:17.604Z,19.74
2019-05-22T14:28:45.945Z,19.68
2019-05-22T14:31:14.336Z,19.83
2019-05-22T14:33:42.744Z,19.99
2019-05-22T14:36:11.963Z,19.95
2019-05-22T14:38:41.015Z,20.07
2019-05-22T14:41:10.084Z,20.37
2019-05-22T14:43:38.567Z,20.45
2019-05-22T14:46:06.950Z,20.34
2019-05-22T14:48:35.245Z,20.22
2019-05-22T14:51:04.202Z,20.03
2019-05-22T14:53:34.036Z,20.10
2019-05-22T14:56:02.887Z,20.35
2019-05-22T14:58:31.728Z,20.49
2019-05-22T15:01:00.026Z,20.70
2019-05-22T15:03:28.313Z,20.91
2019-05-22T15:05:56.701Z,21.19
2019-05-22T15:08:25.099Z,21.35
2019-05-22T15:10:53.837Z,21.55
2019-05-22T15:13:22.580Z,21.69
2019-05-22T15:15:51.253Z,21.80
2019-05-22T15:18:19.580Z,21.94
2019-05-22T15:20:49.507Z,21.92
2019-05-22T15:23:17.812Z,21.74
2019-05-22T15:25:46.095Z,21.50
2019-05-22T15:28:14.466Z,21.33
2019-05-22T15:30:42.919Z,21.32
2019-05-22T15:33:11.790Z,21.37
2019-05-22T15:35:40.193Z,21.49
2019-05-22T15:38:10.419Z,21.60
2019-05-22T15:40:38.829Z,21.70
2019-05-22T15:43:09.306Z,21.58
2019-05-22T15:45:38.592Z,21.34
2019-05-22T15:48:08.509Z,21.08
2019-05-22T15:50:37.314Z,20.87
2019-05-22T15:53:11.841Z,20.86
2019-05-22T15:55:40.255Z,21.00
2019-05-22T15:58:08.918Z,21.22
2019-05-22T16:00:37.868Z,21.32
2019-05-22T16:03:12.048Z,21.08
2019-05-22T16:05:41.414Z,20.97
2019-05-22T16:08:10.067Z,20.71
2019-05-22T16:10:38.424Z,20.64
2019-05-22T16:13:09.112Z,20.61
2019-05-22T16:15:39.072Z,20.39
2019-05-22T16:18:11.475Z,20.23
2019-05-22T16:20:38.695Z,20.23
2019-05-22T16:23:07.268Z,20.24
2019-05-22T16:25:35.726Z,20.28
2019-05-22T16:28:04.297Z,20.32
2019-05-22T16:30:32.653Z,20.28
2019-05-22T16:33:02.339Z,20.28
2019-05-22T16:35:31.393Z,20.41
2019-05-22T16:37:59.690Z,20.39
2019-05-22T16:40:29.891Z,20.24
2019-05-22T16:42:59.060Z,20.16
2019-05-22T16:45:28.964Z,19.97
2019-05-22T16:47:57.878Z,19.87
2019-05-22T16:50:26.934Z,19.84
2019-05-22T16:52:56.451Z,19.84
2019-05-22T16:55:24.750Z,19.83
2019-05-22T16:57:53.564Z,19.84
2019-05-22T17:00:21.979Z,19.85
2019-05-22T17:02:50.313Z,19.85
2019-05-22T17:05:19.884Z,19.78
2019-05-22T17:07:48.232Z,19.81
2019-05-22T17:10:17.284Z,19.82
2019-05-22T17:12:46.523Z,19.94
2019-05-22T17:15:17.615Z,20.03
2019-05-22T17:17:46.880Z,19.90
2019-05-22T17:20:17.621Z,19.73
2019-05-22T17:22:46.180Z,19.71
2019-05-22T17:25:14.498Z,19.67
2019-05-22T17:27:44.506Z,19.47
2019-05-22T17:30:13.711Z,19.38
2019-05-22T17:32:42.055Z,19.37
2019-05-22T17:35:10.926Z,19.21
2019-05-22T17:37:40.196Z,19.14
2019-05-22T17:40:08.947Z,19.10
2019-05-22T17:42:37.336Z,19.01
2019-05-22T17:45:08.618Z,18.90
2019-05-22T17:47:37.278Z,18.87
2019-05-22T17:50:25.222Z,18.71
2019-05-22T17:52:39.522Z,18.56
2019-05-22T17:55:08.469Z,18.45
2019-05-22T17:57:37.123Z,18.37
2019-05-22T18:00:10.598Z,18.37
2019-05-22T18:02:39.893Z,18.27
2019-05-22T18:05:08.448Z,18.16
2019-05-22T18:07:37.056Z,18.18
2019-05-22T18:10:09.394Z,18.08
2019-05-22T18:12:38.063Z,17.96
2019-05-22T18:15:08.177Z,17.85
2019-05-22T18:17:38.546Z,17.84
2019-05-22T18:20:08.529Z,17.72
2019-05-22T18:22:37.679Z,17.60
2019-05-22T18:25:07.385Z,17.52
2019-05-22T18:27:35.928Z,17.60
2019-05-22T18:30:06.993Z,17.55
2019-05-22T18:32:35.822Z,17.43
2019-05-22T18:35:05.319Z,17.36
2019-05-22T18:37:34.432Z,17.27
2019-05-22T18:40:03.626Z,17.11
2019-05-22T18:42:33.725Z,17.08
2019-05-22T18:45:02.249Z,17.09
2019-05-22T18:47:30.756Z,17.05
2019-05-22T18:49:59.526Z,16.97
2019-05-22T18:52:40.693Z,16.92
2019-05-22T18:54:58.225Z,16.85
2019-05-22T18:57:28.311Z,16.88
2019-05-22T19:00:02.471Z,16.85
2019-05-22T19:02:27.206Z,16.79
2019-05-22T19:04:55.639Z,16.71
2019-05-22T19:07:24.596Z,16.71
2019-05-22T19:09:53.030Z,16.68
2019-05-22T19:12:21.703Z,16.60
2019-05-22T19:14:50.248Z,16.59
2019-05-22T19:17:18.830Z,16.52
2019-05-22T19:19:47.400Z,16.47
2019-05-22T19:22:16.420Z,16.48
2019-05-22T19:24:44.689Z,16.48
2019-05-22T19:27:14.745Z,16.49
2019-05-22T19:29:43.188Z,16.49
2019-05-22T19:32:11.671Z,16.45
2019-05-22T19:34:40.209Z,16.42
2019-05-22T19:37:09.284Z,16.41
2019-05-22T19:39:38.385Z,16.40
2019-05-22T19:42:07.992Z,16.40
2019-05-22T19:44:36.465Z,16.40
2019-05-22T19:47:05.417Z,16.39
2019-05-22T19:49:33.935Z,16.35
2019-05-22T19:52:02.557Z,16.34
2019-05-22T19:54:31.289Z,16.32
2019-05-22T19:56:59.648Z,16.25
2019-05-22T19:59:29.800Z,16.20
2019-05-22T20:01:58.111Z,16.14
2019-05-22T20:04:27.193Z,16.07
2019-05-22T20:06:56.083Z,16.02
2019-05-22T20:09:25.615Z,15.95
2019-05-22T20:11:54.244Z,15.90
2019-05-22T20:14:23.052Z,15.84
2019-05-22T20:16:51.337Z,15.77
2019-05-22T20:19:19.758Z,15.67
2019-05-22T20:21:48.077Z,15.57
2019-05-22T20:24:16.370Z,15.47
2019-05-22T20:26:44.809Z,15.39
2019-05-22T20:29:13.833Z,15.34
2019-05-22T20:31:42.110Z,15.30
2019-05-22T20:34:10.787Z,15.26
2019-05-22T20:36:40.539Z,15.20
2019-05-22T20:39:10.435Z,15.09
2019-05-22T20:41:38.856Z,15.00
2019-05-22T20:44:08.071Z,14.92
2019-05-22T20:46:38.115Z,14.85
2019-05-22T20:49:06.798Z,14.77
2019-05-22T20:51:35.240Z,14.69
2019-05-22T20:54:04.794Z,14.62
2019-05-22T20:56:34.750Z,14.53
2019-05-22T20:59:03.686Z,14.45
2019-05-22T21:01:33.336Z,14.40
2019-05-22T21:04:04.152Z,14.34
2019-05-22T21:06:34.688Z,14.25
2019-05-22T21:09:04.416Z,14.20
2019-05-22T21:11:33.579Z,14.12
2019-05-22T21:14:01.991Z,14.06
2019-05-22T21:16:30.543Z,14.00
2019-05-22T21:18:59.203Z,13.93
2019-05-22T21:21:28.231Z,13.86
2019-05-22T21:24:09.373Z,13.81
2019-05-22T21:26:27.721Z,13.76
2019-05-22T21:28:56.003Z,13.68
2019-05-22T21:31:24.852Z,13.62
2019-05-22T21:33:54.071Z,13.57
2019-05-22T21:36:23.965Z,13.54
2019-05-22T21:38:52.299Z,13.50
2019-05-22T21:41:21.316Z,13.49
2019-05-22T21:43:50.881Z,13.46
2019-05-22T21:46:19.656Z,13.44
2019-05-22T21:48:49.583Z,13.42
2019-05-22T21:51:18.755Z,13.39
2019-05-22T21:53:47.222Z,13.36
2019-05-22T21:56:15.510Z,13.35
2019-05-22T21:58:44.226Z,13.29
2019-05-22T22:01:14.233Z,13.27
2019-05-22T22:03:44.440Z,13.22
2019-05-22T22:06:14.686Z,13.19
2019-05-22T22:08:43.069Z,13.14
2019-05-22T22:11:11.450Z,13.12
2019-05-22T22:13:39.765Z,13.08
2019-05-22T22:16:09.053Z,13.03
2019-05-22T22:18:38.978Z,13.00
2019-05-22T22:21:07.822Z,12.97
2019-05-22T22:23:36.182Z,12.91
2019-05-22T22:26:20.525Z,12.84
2019-05-22T22:28:35.879Z,12.79
2019-05-22T22:31:14.751Z,12.72
2019-05-22T22:33:45.632Z,12.65
2019-05-22T22:36:14.271Z,12.59
2019-05-22T22:38:43.044Z,12.56
2019-05-22T22:41:12.297Z,12.49
2019-05-22T22:43:40.850Z,12.42
2019-05-22T22:46:31.997Z,12.39
2019-05-22T22:49:01.922Z,12.37
2019-05-22T22:51:30.318Z,12.31
2019-05-22T22:53:58.835Z,12.26
2019-05-22T22:56:29.023Z,12.21
2019-05-22T22:58:58.406Z,12.15
2019-05-22T23:01:28.421Z,12.12
2019-05-22T23:03:56.890Z,12.07
2019-05-22T23:06:25.237Z,12.02
2019-05-22T23:08:53.660Z,11.98
2019-05-22T23:11:22.686Z,11.93
2019-05-22T23:13:51.034Z,11.89
2019-05-22T23:16:21.319Z,11.85
2019-05-22T23:19:14.081Z,11.81
2019-05-22T23:21:41.471Z,11.76
2019-05-22T23:24:13.222Z,11.70
2019-05-22T23:26:43.406Z,11.66
2019-05-22T23:29:12.842Z,11.61
2019-05-22T23:31:41.456Z,11.56
2019-05-22T23:34:09.909Z,11.50
2019-05-22T23:36:39.166Z,11.45
2019-05-22T23:39:13.333Z,11.40
2019-05-22T23:41:42.387Z,11.36
2019-05-22T23:44:11.783Z,11.32
2019-05-22T23:46:41.488Z,11.28
2019-05-22T23:49:10.114Z,11.22
2019-05-22T23:51:38.416Z,11.18
2019-05-22T23:54:06.896Z,11.14
2019-05-22T23:56:36.743Z,11.10
2019-05-22T23:59:05.057Z,11.02
